createdAt,value
2023-04-16T00:00:07.572Z,73.81
2023-04-16T00:02:33.940Z,72.54
2023-04-16T00:05:00.361Z,72.55
2023-04-16T00:07:26.643Z,71.93
2023-04-16T00:09:52.888Z,73.28
2023-04-16T00:12:19.160Z,73.44
2023-04-16T00:14:45.428Z,73.97
2023-04-16T00:17:11.717Z,73.79
2023-04-16T00:19:38.045Z,72.44
2023-04-16T00:22:04.287Z,71.93
2023-04-16T00:24:30.558Z,73.13
2023-04-16T00:26:56.807Z,73.80
2023-04-16T00:29:23.034Z,74.28
2023-04-16T00:31:49.271Z,74.28
2023-04-16T00:34:15.504Z,74.62
2023-04-16T00:36:41.771Z,73.76
2023-04-16T00:39:08.422Z,74.32
2023-04-16T00:41:34.881Z,73.82
2023-04-16T00:44:01.107Z,71.96
2023-04-16T00:46:27.378Z,70.81
2023-04-16T00:48:53.662Z,69.73
2023-04-16T00:51:19.896Z,70.05
2023-04-16T00:53:46.132Z,69.67
2023-04-16T00:56:12.381Z,69.30
2023-04-16T00:58:38.614Z,69.66
2023-04-16T01:01:04.949Z,69.38
2023-04-16T01:03:31.448Z,69.49
2023-04-16T01:05:57.769Z,68.88
2023-04-16T01:08:24.020Z,68.41
2023-04-16T01:10:50.284Z,67.80
2023-04-16T01:13:16.549Z,66.26
2023-04-16T01:15:42.818Z,66.77
2023-04-16T01:18:09.093Z,69.01
2023-04-16T01:20:35.357Z,70.70
2023-04-16T01:23:01.636Z,70.21
2023-04-16T01:25:27.892Z,69.15
2023-04-16T01:27:54.204Z,68.74
2023-04-16T01:30:20.532Z,67.58
2023-04-16T01:32:46.814Z,67.87
2023-04-16T01:35:13.119Z,67.85
2023-04-16T01:37:39.344Z,67.20
2023-04-16T01:40:05.648Z,67.33
2023-04-16T01:42:31.904Z,68.15
2023-04-16T01:44:58.154Z,69.23
2023-04-16T01:47:24.502Z,69.20
2023-04-16T01:49:50.779Z,70.03
2023-04-16T01:52:17.038Z,70.08
2023-04-16T01:54:43.276Z,69.33
2023-04-16T01:57:09.526Z,69.54
2023-04-16T01:59:35.802Z,69.25
2023-04-16T02:02:02.146Z,68.42
2023-04-16T02:04:28.458Z,67.74
2023-04-16T02:06:54.717Z,66.74
2023-04-16T02:09:20.958Z,65.58
2023-04-16T02:11:47.276Z,64.18
2023-04-16T02:14:13.505Z,64.75
2023-04-16T02:16:39.811Z,66.22
2023-04-16T02:19:06.075Z,65.74
2023-04-16T02:21:32.357Z,66.41
2023-04-16T02:23:58.654Z,66.33
2023-04-16T02:26:24.939Z,67.01
2023-04-16T02:28:51.182Z,68.13
2023-04-16T02:31:17.428Z,67.30
2023-04-16T02:33:43.686Z,66.45
2023-04-16T02:36:09.939Z,66.13
2023-04-16T02:38:36.220Z,66.46
2023-04-16T02:41:02.445Z,66.34
2023-04-16T02:43:28.673Z,67.23
2023-04-16T02:45:54.930Z,65.69
2023-04-16T02:48:21.186Z,65.38
2023-04-16T02:50:47.451Z,64.58
2023-04-16T02:53:13.707Z,65.24
2023-04-16T02:55:39.987Z,66.34
2023-04-16T02:58:06.243Z,66.72
2023-04-16T03:00:32.496Z,66.34
2023-04-16T03:02:58.852Z,67.01
2023-04-16T03:05:25.279Z,66.27
2023-04-16T03:07:51.527Z,66.52
2023-04-16T03:10:17.757Z,65.67
2023-04-16T03:12:44.014Z,66.01
2023-04-16T03:15:10.244Z,65.93
2023-04-16T03:17:36.539Z,65.23
2023-04-16T03:20:02.863Z,65.30
2023-04-16T03:22:29.265Z,66.94
2023-04-16T03:24:55.515Z,67.49
2023-04-16T03:27:21.747Z,67.35
2023-04-16T03:29:47.990Z,67.99
2023-04-16T03:32:14.237Z,68.49
2023-04-16T03:34:40.504Z,68.14
2023-04-16T03:37:06.756Z,69.82
2023-04-16T03:39:33.053Z,70.82
2023-04-16T03:41:59.343Z,70.79
2023-04-16T03:44:25.610Z,70.72
2023-04-16T03:46:51.915Z,70.40
2023-04-16T03:49:18.176Z,70.25
2023-04-16T03:51:44.460Z,69.67
2023-04-16T03:54:10.751Z,69.02
2023-04-16T03:56:36.988Z,68.53
2023-04-16T03:59:03.272Z,69.48
2023-04-16T04:01:29.536Z,69.44
2023-04-16T04:03:56.000Z,70.10
2023-04-16T04:06:22.367Z,70.39
2023-04-16T04:08:48.619Z,70.40
2023-04-16T04:11:14.896Z,70.47
2023-04-16T04:13:41.167Z,70.37
2023-04-16T04:16:07.430Z,70.13
2023-04-16T04:18:33.713Z,70.33
2023-04-16T04:20:59.946Z,70.22
2023-04-16T04:23:26.381Z,69.46
2023-04-16T04:25:52.800Z,68.45
2023-04-16T04:28:19.122Z,67.89
2023-04-16T04:30:45.376Z,66.95
2023-04-16T04:33:11.613Z,66.78
2023-04-16T04:35:37.850Z,66.87
2023-04-16T04:38:04.111Z,67.15
2023-04-16T04:40:30.334Z,66.37
2023-04-16T04:42:56.586Z,66.31
2023-04-16T04:45:22.809Z,66.01
2023-04-16T04:47:49.146Z,65.32
2023-04-16T04:50:15.460Z,64.92
2023-04-16T04:52:41.731Z,65.09
2023-04-16T04:55:07.987Z,64.85
2023-04-16T04:57:34.216Z,64.29
2023-04-16T05:00:00.468Z,63.69
2023-04-16T05:02:26.811Z,63.95
2023-04-16T05:04:53.286Z,63.86
2023-04-16T05:07:19.690Z,64.37
2023-04-16T05:09:45.938Z,64.68
2023-04-16T05:12:12.179Z,65.41
2023-04-16T05:14:38.460Z,65.70
2023-04-16T05:17:04.706Z,66.14
2023-04-16T05:19:31.023Z,66.89
2023-04-16T05:21:57.238Z,67.33
2023-04-16T05:24:23.513Z,67.33
2023-04-16T05:26:49.856Z,67.52
2023-04-16T05:29:16.095Z,67.58
2023-04-16T05:31:42.325Z,67.01
2023-04-16T05:34:08.559Z,66.69
2023-04-16T05:36:34.796Z,66.20
2023-04-16T05:39:01.024Z,65.33
2023-04-16T05:41:27.258Z,65.25
2023-04-16T05:43:53.514Z,65.01
2023-04-16T05:46:19.789Z,65.29
2023-04-16T05:48:46.175Z,64.79
2023-04-16T05:51:12.434Z,64.50
2023-04-16T05:53:38.684Z,63.91
2023-04-16T05:56:04.955Z,63.85
2023-04-16T05:58:31.374Z,64.64
2023-04-16T06:00:57.624Z,63.02
2023-04-16T06:03:24.001Z,63.03
2023-04-16T06:05:50.411Z,63.03
2023-04-16T06:08:16.752Z,62.96
2023-04-16T06:10:43.001Z,63.84
2023-04-16T06:13:09.229Z,64.29
2023-04-16T06:15:35.472Z,63.96
2023-04-16T06:18:01.735Z,62.36
2023-04-16T06:20:28.027Z,63.19
2023-04-16T06:22:54.296Z,63.60
2023-04-16T06:25:20.514Z,63.48
2023-04-16T06:27:46.751Z,63.68
2023-04-16T06:30:12.968Z,65.22
2023-04-16T06:32:39.212Z,65.40
2023-04-16T06:35:05.592Z,65.64
2023-04-16T06:37:31.894Z,63.99
2023-04-16T06:39:58.157Z,65.16
2023-04-16T06:42:24.399Z,64.04
2023-04-16T06:44:50.661Z,63.98
2023-04-16T06:47:17.006Z,62.62
2023-04-16T06:49:43.351Z,62.48
2023-04-16T06:52:09.604Z,62.26
2023-04-16T06:54:35.831Z,63.19
2023-04-16T06:57:02.130Z,64.00
2023-04-16T06:59:28.425Z,63.00
2023-04-16T07:01:54.817Z,61.80
2023-04-16T07:04:21.219Z,60.32
2023-04-16T07:06:47.519Z,61.69
2023-04-16T07:09:13.749Z,59.38
2023-04-16T07:11:39.981Z,58.45
2023-04-16T07:14:06.252Z,57.68
2023-04-16T07:16:32.590Z,57.27
2023-04-16T07:18:58.842Z,56.36
2023-04-16T07:21:25.073Z,56.18
2023-04-16T07:23:51.354Z,56.14
2023-04-16T07:26:17.597Z,54.70
2023-04-16T07:28:43.848Z,53.69
2023-04-16T07:31:10.084Z,54.15
2023-04-16T07:33:36.317Z,54.45
2023-04-16T07:36:02.588Z,52.74
2023-04-16T07:38:28.864Z,53.12
2023-04-16T07:40:55.132Z,55.02
2023-04-16T07:43:21.369Z,55.88
2023-04-16T07:45:47.660Z,55.40
2023-04-16T07:48:13.913Z,54.63
2023-04-16T07:50:40.146Z,52.34
2023-04-16T07:53:06.372Z,54.63
2023-04-16T07:55:32.618Z,55.54
2023-04-16T07:57:58.882Z,55.13
2023-04-16T08:00:25.162Z,55.21
2023-04-16T08:02:51.498Z,56.05
2023-04-16T08:05:17.828Z,57.84
2023-04-16T08:07:44.129Z,60.78
2023-04-16T08:10:10.375Z,61.62
2023-04-16T08:12:36.637Z,60.88
2023-04-16T08:15:02.912Z,58.49
2023-04-16T08:17:29.171Z,59.39
2023-04-16T08:19:55.451Z,58.59
2023-04-16T08:22:21.748Z,58.34
2023-04-16T08:24:47.984Z,58.03
2023-04-16T08:27:18.502Z,59.08
2023-04-16T08:29:45.723Z,57.02
2023-04-16T08:32:12.006Z,57.01
2023-04-16T08:34:38.322Z,54.82
2023-04-16T08:37:04.560Z,55.04
2023-04-16T08:39:30.794Z,53.97
2023-04-16T08:41:57.046Z,53.11
2023-04-16T08:44:23.292Z,52.94
2023-04-16T08:46:49.581Z,52.52
2023-04-16T08:49:15.868Z,52.52
2023-04-16T08:51:42.095Z,52.08
2023-04-16T08:54:08.336Z,48.48
2023-04-16T08:56:34.556Z,50.20
2023-04-16T08:59:00.809Z,48.71
2023-04-16T09:01:27.106Z,48.54
2023-04-16T09:03:53.589Z,47.97
2023-04-16T09:06:19.998Z,47.40
2023-04-16T09:08:46.286Z,48.72
2023-04-16T09:11:12.549Z,45.96
2023-04-16T09:13:38.792Z,47.01
2023-04-16T09:16:05.041Z,46.22
2023-04-16T09:18:31.313Z,46.37
2023-04-16T09:20:57.582Z,45.68
2023-04-16T09:23:23.847Z,44.66
2023-04-16T09:25:50.136Z,46.01
2023-04-16T09:28:16.399Z,44.88
2023-04-16T09:30:42.656Z,45.90
2023-04-16T09:33:08.900Z,46.58
2023-04-16T09:35:35.158Z,47.56
2023-04-16T09:38:01.400Z,45.50
2023-04-16T09:40:27.671Z,48.04
2023-04-16T09:42:53.940Z,48.82
2023-04-16T09:45:20.184Z,49.12
2023-04-16T09:47:46.538Z,50.19
2023-04-16T09:50:13.264Z,50.28
2023-04-16T09:52:39.991Z,48.46
2023-04-16T09:55:06.257Z,47.04
2023-04-16T09:57:32.493Z,44.93
2023-04-16T09:59:58.721Z,46.65
2023-04-16T10:02:25.037Z,45.45
2023-04-16T10:04:51.480Z,44.61
2023-04-16T10:07:17.833Z,43.60
2023-04-16T10:09:44.059Z,44.86
2023-04-16T10:12:10.279Z,44.24
2023-04-16T10:14:36.565Z,44.20
2023-04-16T10:17:02.916Z,43.70
2023-04-16T10:19:29.306Z,43.95
2023-04-16T10:21:55.589Z,43.59
2023-04-16T10:24:21.843Z,42.55
2023-04-16T10:26:48.074Z,43.28
2023-04-16T10:29:14.313Z,42.58
2023-04-16T10:31:40.568Z,43.48
2023-04-16T10:34:06.819Z,41.89
2023-04-16T10:36:33.079Z,41.17
2023-04-16T10:38:59.378Z,43.54
2023-04-16T10:41:25.683Z,43.32
2023-04-16T10:43:51.971Z,41.80
2023-04-16T10:46:18.249Z,43.85
2023-04-16T10:48:49.721Z,44.19
2023-04-16T10:51:16.768Z,43.08
2023-04-16T10:53:43.046Z,44.26
2023-04-16T10:56:09.284Z,45.09
2023-04-16T10:58:35.576Z,44.73
2023-04-16T11:01:01.881Z,44.84
2023-04-16T11:03:28.289Z,43.71
2023-04-16T11:05:54.700Z,42.78
2023-04-16T11:08:20.990Z,43.95
2023-04-16T11:10:47.219Z,46.13
2023-04-16T11:13:13.493Z,46.25
2023-04-16T11:15:39.855Z,45.83
2023-04-16T11:18:06.136Z,45.98
2023-04-16T11:20:32.417Z,46.94
2023-04-16T11:22:58.669Z,45.70
2023-04-16T11:25:24.986Z,46.04
2023-04-16T11:27:51.302Z,45.81
2023-04-16T11:30:17.566Z,47.36
2023-04-16T11:32:43.812Z,46.12
2023-04-16T11:35:10.119Z,45.43
2023-04-16T11:37:36.412Z,45.72
2023-04-16T11:40:02.677Z,45.41
2023-04-16T11:42:28.959Z,45.82
2023-04-16T11:44:55.269Z,45.44
2023-04-16T11:47:21.644Z,45.90
2023-04-16T11:49:47.911Z,44.15
2023-04-16T11:52:14.165Z,45.59
2023-04-16T11:54:40.398Z,43.65
2023-04-16T11:57:06.641Z,43.64
2023-04-16T11:59:32.892Z,44.48
2023-04-16T12:01:59.160Z,45.21
2023-04-16T12:04:25.606Z,45.41
2023-04-16T12:06:51.932Z,43.87
2023-04-16T12:09:18.181Z,45.60
2023-04-16T12:11:44.412Z,45.85
2023-04-16T12:14:10.678Z,44.04
2023-04-16T12:16:37.000Z,44.76
2023-04-16T12:19:03.265Z,42.21
2023-04-16T12:21:29.525Z,42.96
2023-04-16T12:23:55.777Z,43.33
2023-04-16T12:26:22.079Z,43.21
2023-04-16T12:28:48.351Z,42.69
2023-04-16T12:31:14.719Z,41.70
2023-04-16T12:33:41.023Z,43.52
2023-04-16T12:36:07.256Z,43.50
2023-04-16T12:38:33.515Z,42.18
2023-04-16T12:40:59.778Z,41.15
2023-04-16T12:43:26.066Z,42.52
2023-04-16T12:45:52.374Z,41.41
2023-04-16T12:48:18.650Z,42.31
2023-04-16T12:50:44.946Z,40.53
2023-04-16T12:53:11.229Z,42.03
2023-04-16T12:55:37.451Z,40.23
2023-04-16T12:58:03.707Z,41.34
2023-04-16T13:00:29.947Z,42.05
2023-04-16T13:02:56.318Z,41.74
2023-04-16T13:05:22.668Z,43.01
2023-04-16T13:07:48.914Z,42.81
2023-04-16T13:10:15.176Z,43.62
2023-04-16T13:12:41.402Z,42.98
2023-04-16T13:15:07.662Z,43.31
2023-04-16T13:17:34.002Z,43.11
2023-04-16T13:20:00.275Z,42.81
2023-04-16T13:22:26.535Z,43.76
2023-04-16T13:24:52.758Z,43.27
2023-04-16T13:27:19.026Z,43.01
2023-04-16T13:29:45.865Z,43.08
2023-04-16T13:32:12.115Z,42.95
2023-04-16T13:34:38.365Z,44.19
2023-04-16T13:37:04.628Z,43.28
2023-04-16T13:39:30.882Z,43.90
2023-04-16T13:41:57.178Z,43.57
2023-04-16T13:44:23.400Z,43.60
2023-04-16T13:46:49.695Z,41.38
2023-04-16T13:49:15.966Z,41.62
2023-04-16T13:51:42.203Z,42.56
2023-04-16T13:54:08.424Z,41.93
2023-04-16T13:56:36.594Z,42.09
2023-04-16T13:59:02.824Z,41.22
2023-04-16T14:01:29.084Z,42.25
2023-04-16T14:03:55.439Z,42.08
2023-04-16T14:06:21.816Z,41.97
2023-04-16T14:08:48.084Z,42.67
2023-04-16T14:11:14.359Z,42.23
2023-04-16T14:13:40.627Z,41.60
2023-04-16T14:16:06.878Z,41.75
2023-04-16T14:18:33.171Z,41.47
2023-04-16T14:20:59.471Z,42.49
2023-04-16T14:23:25.688Z,42.36
2023-04-16T14:25:51.939Z,42.18
2023-04-16T14:28:18.180Z,42.43
2023-04-16T14:30:44.458Z,43.90
2023-04-16T14:33:10.760Z,42.95
2023-04-16T14:35:37.013Z,41.52
2023-04-16T14:38:03.285Z,42.59
2023-04-16T14:40:29.558Z,42.49
2023-04-16T14:42:55.809Z,42.67
2023-04-16T14:45:22.048Z,42.41
2023-04-16T14:47:48.339Z,42.24
2023-04-16T14:50:14.612Z,41.56
2023-04-16T14:52:40.854Z,42.58
2023-04-16T14:55:07.126Z,43.30
2023-04-16T14:57:33.371Z,44.36
2023-04-16T14:59:59.620Z,43.57
2023-04-16T15:02:26.047Z,43.03
2023-04-16T15:04:52.464Z,42.26
2023-04-16T15:07:18.719Z,42.20
2023-04-16T15:09:44.972Z,44.03
2023-04-16T15:12:11.241Z,42.91
2023-04-16T15:14:37.509Z,43.08
2023-04-16T15:17:03.885Z,44.11
2023-04-16T15:19:30.195Z,43.06
2023-04-16T15:21:56.476Z,42.38
2023-04-16T15:24:24.407Z,42.18
2023-04-16T15:26:50.613Z,42.80
2023-04-16T15:29:16.871Z,43.46
2023-04-16T15:31:43.106Z,42.55
2023-04-16T15:34:09.627Z,42.52
2023-04-16T15:36:36.032Z,42.24
2023-04-16T15:39:02.297Z,43.85
2023-04-16T15:41:28.547Z,43.48
2023-04-16T15:43:54.770Z,42.99
2023-04-16T15:46:21.095Z,42.53
2023-04-16T15:48:47.508Z,42.07
2023-04-16T15:51:13.837Z,41.49
2023-04-16T15:53:40.117Z,43.18
2023-04-16T15:56:06.372Z,41.28
2023-04-16T15:58:32.629Z,42.71
2023-04-16T16:00:58.882Z,43.59
2023-04-16T16:03:25.290Z,43.15
2023-04-16T16:05:51.683Z,44.12
2023-04-16T16:08:17.922Z,43.74
2023-04-16T16:10:44.175Z,43.32
2023-04-16T16:13:10.458Z,43.45
2023-04-16T16:15:36.732Z,43.11
2023-04-16T16:18:02.989Z,43.44
2023-04-16T16:20:29.223Z,43.54
2023-04-16T16:22:55.499Z,43.41
2023-04-16T16:25:21.764Z,43.10
2023-04-16T16:27:47.985Z,42.81
2023-04-16T16:30:14.246Z,43.59
2023-04-16T16:32:40.575Z,43.31
2023-04-16T16:35:06.868Z,44.02
2023-04-16T16:37:33.097Z,43.74
2023-04-16T16:39:59.374Z,45.08
2023-04-16T16:42:25.717Z,45.05
2023-04-16T16:44:52.657Z,45.96
2023-04-16T16:47:19.681Z,45.83
2023-04-16T16:49:45.921Z,46.46
2023-04-16T16:52:12.224Z,45.91
2023-04-16T16:54:38.512Z,45.08
2023-04-16T16:57:04.773Z,45.00
2023-04-16T16:59:31.028Z,43.79
2023-04-16T17:01:57.320Z,43.84
2023-04-16T17:04:23.705Z,44.51
2023-04-16T17:06:50.124Z,43.53
2023-04-16T17:09:16.388Z,43.37
2023-04-16T17:11:42.637Z,44.96
2023-04-16T17:14:08.892Z,44.00
2023-04-16T17:16:35.245Z,44.61
2023-04-16T17:19:01.556Z,44.55
2023-04-16T17:21:27.824Z,46.55
2023-04-16T17:23:54.139Z,45.52
2023-04-16T17:26:20.412Z,47.17
2023-04-16T17:28:46.656Z,49.83
2023-04-16T17:31:12.927Z,52.81
2023-04-16T17:33:39.202Z,54.60
2023-04-16T17:36:05.428Z,54.71
2023-04-16T17:38:31.665Z,55.39
2023-04-16T17:40:57.901Z,56.02
2023-04-16T17:43:24.155Z,56.15
2023-04-16T17:45:50.412Z,56.53
2023-04-16T17:48:16.688Z,57.46
2023-04-16T17:50:42.950Z,58.24
2023-04-16T17:53:09.693Z,59.05
2023-04-16T17:55:35.956Z,58.94
2023-04-16T17:58:02.223Z,58.98
2023-04-16T18:00:28.530Z,58.38
2023-04-16T18:02:54.872Z,57.83
2023-04-16T18:05:21.237Z,57.55
2023-04-16T18:07:47.502Z,56.44
2023-04-16T18:10:13.779Z,56.33
2023-04-16T18:12:40.010Z,56.42
2023-04-16T18:15:06.292Z,56.29
2023-04-16T18:17:33.950Z,56.56
2023-04-16T18:20:00.205Z,56.91
2023-04-16T18:22:27.578Z,57.61
2023-04-16T18:24:53.914Z,58.17
2023-04-16T18:27:20.150Z,59.78
2023-04-16T18:29:46.512Z,59.62
2023-04-16T18:32:12.844Z,59.48
2023-04-16T18:34:39.139Z,59.12
2023-04-16T18:37:05.448Z,59.83
2023-04-16T18:39:31.738Z,60.05
2023-04-16T18:41:57.981Z,60.87
2023-04-16T18:44:24.224Z,61.86
2023-04-16T18:46:50.507Z,61.90
2023-04-16T18:49:16.759Z,65.09
2023-04-16T18:51:43.006Z,65.40
2023-04-16T18:54:09.282Z,65.05
2023-04-16T18:56:35.540Z,64.61
2023-04-16T18:59:01.808Z,64.13
2023-04-16T19:01:28.103Z,64.18
2023-04-16T19:03:54.511Z,64.22
2023-04-16T19:06:20.761Z,64.67
2023-04-16T19:08:46.991Z,64.68
2023-04-16T19:11:13.274Z,64.91
2023-04-16T19:13:39.528Z,65.19
2023-04-16T19:16:05.804Z,65.36
2023-04-16T19:18:32.080Z,66.25
2023-04-16T19:20:58.348Z,67.82
2023-04-16T19:23:24.599Z,71.43
2023-04-16T19:25:50.860Z,74.85
2023-04-16T19:28:17.109Z,77.71
2023-04-16T19:30:43.379Z,76.33
2023-04-16T19:33:09.789Z,75.47
2023-04-16T19:35:36.098Z,74.84
2023-04-16T19:38:02.350Z,75.76
2023-04-16T19:40:28.612Z,74.78
2023-04-16T19:42:54.931Z,74.10
2023-04-16T19:45:21.210Z,73.54
2023-04-16T19:47:47.615Z,73.09
2023-04-16T19:50:13.865Z,72.85
2023-04-16T19:52:40.122Z,72.56
2023-04-16T19:55:06.377Z,71.91
2023-04-16T19:57:32.639Z,72.31
2023-04-16T19:59:58.877Z,71.54
2023-04-16T20:02:25.171Z,71.73
2023-04-16T20:04:51.500Z,72.40
2023-04-16T20:07:17.752Z,72.75
2023-04-16T20:09:43.997Z,72.97
2023-04-16T20:12:10.225Z,73.30
2023-04-16T20:14:36.459Z,72.49
2023-04-16T20:17:02.715Z,72.14
2023-04-16T20:19:28.988Z,71.01
2023-04-16T20:21:55.240Z,70.66
2023-04-16T20:24:21.464Z,69.52
2023-04-16T20:26:47.688Z,68.57
2023-04-16T20:29:13.924Z,67.89
2023-04-16T20:31:40.177Z,68.07
2023-04-16T20:34:06.430Z,68.35
2023-04-16T20:36:32.796Z,67.96
2023-04-16T20:38:59.039Z,66.74
2023-04-16T20:41:25.332Z,66.53
2023-04-16T20:43:51.580Z,66.38
2023-04-16T20:46:17.945Z,67.22
2023-04-16T20:48:44.351Z,70.36
2023-04-16T20:51:10.580Z,82.12
2023-04-16T20:53:36.837Z,82.76
2023-04-16T20:56:03.130Z,82.27
2023-04-16T20:58:29.350Z,82.46
2023-04-16T21:00:55.597Z,81.75
2023-04-16T21:03:22.026Z,81.25
2023-04-16T21:05:48.440Z,81.41
2023-04-16T21:08:14.701Z,82.32
2023-04-16T21:10:40.922Z,81.47
2023-04-16T21:13:07.152Z,81.10
2023-04-16T21:15:33.403Z,81.70
2023-04-16T21:17:59.675Z,81.46
2023-04-16T21:20:25.932Z,80.78
2023-04-16T21:22:52.161Z,80.92
2023-04-16T21:25:18.421Z,80.43
2023-04-16T21:27:44.691Z,81.57
2023-04-16T21:30:10.956Z,81.12
2023-04-16T21:32:37.262Z,79.10
2023-04-16T21:35:04.492Z,78.36
2023-04-16T21:37:30.724Z,77.96
2023-04-16T21:39:56.976Z,76.44
2023-04-16T21:42:23.217Z,75.81
2023-04-16T21:44:49.481Z,75.61
2023-04-16T21:47:15.713Z,75.64
2023-04-16T21:49:41.969Z,75.46
2023-04-16T21:52:08.191Z,75.09
2023-04-16T21:54:34.421Z,74.73
2023-04-16T21:57:00.669Z,74.49
2023-04-16T21:59:26.897Z,74.89
2023-04-16T22:01:53.304Z,75.03
2023-04-16T22:04:19.664Z,75.03
2023-04-16T22:06:45.908Z,74.48
2023-04-16T22:09:12.324Z,73.83
2023-04-16T22:11:38.646Z,73.46
2023-04-16T22:14:04.882Z,73.83
2023-04-16T22:18:57.349Z,75.00
2023-04-16T22:21:23.591Z,75.17
2023-04-16T22:23:49.992Z,77.15
2023-04-16T22:26:16.241Z,80.61
2023-04-16T22:28:42.488Z,79.74
2023-04-16T22:31:08.717Z,79.22
2023-04-16T22:33:34.992Z,77.87
2023-04-16T22:36:01.282Z,77.53
2023-04-16T22:38:28.299Z,77.92
2023-04-16T22:40:54.543Z,79.23
2023-04-16T22:43:20.769Z,79.84
2023-04-16T22:45:47.116Z,79.46
2023-04-16T22:48:13.391Z,78.37
2023-04-16T22:50:39.658Z,77.99
2023-04-16T22:53:05.881Z,76.98
2023-04-16T22:55:32.109Z,77.08
2023-04-16T22:57:58.345Z,76.56
2023-04-16T23:00:24.587Z,76.81
2023-04-16T23:02:50.871Z,77.14
2023-04-16T23:05:17.146Z,78.15
2023-04-16T23:07:43.394Z,78.00
2023-04-16T23:10:09.645Z,77.04
2023-04-16T23:12:35.878Z,76.70
2023-04-16T23:15:02.132Z,75.99
2023-04-16T23:17:28.392Z,76.18
2023-04-16T23:19:54.681Z,76.25
2023-04-16T23:22:20.963Z,76.45
2023-04-16T23:24:47.214Z,76.67
2023-04-16T23:27:13.451Z,76.38
2023-04-16T23:29:39.715Z,77.65
2023-04-16T23:32:05.997Z,78.37
2023-04-16T23:34:32.233Z,78.08
2023-04-16T23:36:58.480Z,78.01
2023-04-16T23:39:24.717Z,77.13
2023-04-16T23:41:50.944Z,76.40
2023-04-16T23:44:17.189Z,76.54
2023-04-16T23:46:43.485Z,75.43
2023-04-16T23:49:10.058Z,74.86
2023-04-16T23:51:36.571Z,74.78
2023-04-16T23:54:02.809Z,74.63
2023-04-16T23:56:29.036Z,73.83
2023-04-16T23:58:55.251Z,73.74
